sensor_id;sensor_type;location;lat;lon;timestamp;P1;durP1;ratioP1;P2;durP2;ratioP2
43086;SDS011;28708;52.224;6.924;2023-06-19T00:02:20;8.52;;;6.05;;
43086;SDS011;28708;52.224;6.924;2023-06-19T00:04:46;8.95;;;6.32;;
43086;SDS011;28708;52.224;6.924;2023-06-19T00:07:11;8.43;;;6.35;;
43086;SDS011;28708;52.224;6.924;2023-06-19T00:09:37;12.10;;;6.78;;
43086;SDS011;28708;52.224;6.924;2023-06-19T00:12:03;8.63;;;6.03;;
43086;SDS011;28708;52.224;6.924;2023-06-19T00:14:29;10.15;;;6.03;;
43086;SDS011;28708;52.224;6.924;2023-06-19T00:16:55;7.40;;;5.97;;
43086;SDS011;28708;52.224;6.924;2023-06-19T00:19:21;8.88;;;6.53;;
43086;SDS011;28708;52.224;6.924;2023-06-19T00:21:47;7.38;;;5.68;;
43086;SDS011;28708;52.224;6.924;2023-06-19T00:24:13;8.18;;;6.38;;
43086;SDS011;28708;52.224;6.924;2023-06-19T00:26:39;9.85;;;6.65;;
43086;SDS011;28708;52.224;6.924;2023-06-19T00:29:05;9.15;;;6.68;;
43086;SDS011;28708;52.224;6.924;2023-06-19T00:31:32;7.97;;;5.47;;
43086;SDS011;28708;52.224;6.924;2023-06-19T00:33:57;8.68;;;6.40;;
43086;SDS011;28708;52.224;6.924;2023-06-19T00:36:24;9.35;;;5.95;;
43086;SDS011;28708;52.224;6.924;2023-06-19T00:38:51;8.43;;;6.00;;
43086;SDS011;28708;52.224;6.924;2023-06-19T00:41:17;8.35;;;6.13;;
43086;SDS011;28708;52.224;6.924;2023-06-19T00:43:46;7.18;;;5.60;;
43086;SDS011;28708;52.224;6.924;2023-06-19T00:46:12;9.10;;;5.80;;
43086;SDS011;28708;52.224;6.924;2023-06-19T00:48:37;9.93;;;5.68;;
43086;SDS011;28708;52.224;6.924;2023-06-19T00:51:04;10.70;;;6.40;;
43086;SDS011;28708;52.224;6.924;2023-06-19T00:53:30;11.75;;;6.93;;
43086;SDS011;28708;52.224;6.924;2023-06-19T00:55:57;8.38;;;6.05;;
43086;SDS011;28708;52.224;6.924;2023-06-19T00:58:24;9.35;;;6.50;;
43086;SDS011;28708;52.224;6.924;2023-06-19T01:00:51;12.60;;;5.90;;
43086;SDS011;28708;52.224;6.924;2023-06-19T01:03:17;9.45;;;6.30;;
43086;SDS011;28708;52.224;6.924;2023-06-19T01:05:42;8.23;;;6.53;;
43086;SDS011;28708;52.224;6.924;2023-06-19T01:11:00;9.05;;;6.55;;
43086;SDS011;28708;52.224;6.924;2023-06-19T01:13:31;9.82;;;6.93;;
43086;SDS011;28708;52.224;6.924;2023-06-19T01:15:57;10.07;;;6.90;;
43086;SDS011;28708;52.224;6.924;2023-06-19T01:18:24;9.93;;;6.10;;
43086;SDS011;28708;52.224;6.924;2023-06-19T01:20:52;10.55;;;6.32;;
43086;SDS011;28708;52.224;6.924;2023-06-19T01:23:17;9.65;;;6.45;;
43086;SDS011;28708;52.224;6.924;2023-06-19T01:25:44;8.75;;;6.28;;
43086;SDS011;28708;52.224;6.924;2023-06-19T01:28:10;11.32;;;6.00;;
43086;SDS011;28708;52.224;6.924;2023-06-19T01:30:38;11.75;;;5.97;;
43086;SDS011;28708;52.224;6.924;2023-06-19T01:33:08;9.93;;;6.10;;
43086;SDS011;28708;52.224;6.924;2023-06-19T01:35:38;9.00;;;5.93;;
43086;SDS011;28708;52.224;6.924;2023-06-19T01:38:07;9.75;;;5.82;;
43086;SDS011;28708;52.224;6.924;2023-06-19T01:40:33;11.35;;;5.50;;
43086;SDS011;28708;52.224;6.924;2023-06-19T01:43:00;7.15;;;5.35;;
43086;SDS011;28708;52.224;6.924;2023-06-19T01:45:29;8.38;;;5.75;;
43086;SDS011;28708;52.224;6.924;2023-06-19T01:47:55;7.68;;;5.75;;
43086;SDS011;28708;52.224;6.924;2023-06-19T01:50:22;9.60;;;5.00;;
43086;SDS011;28708;52.224;6.924;2023-06-19T01:52:50;10.07;;;5.68;;
43086;SDS011;28708;52.224;6.924;2023-06-19T01:55:15;8.82;;;5.00;;
43086;SDS011;28708;52.224;6.924;2023-06-19T01:57:41;8.40;;;5.00;;
43086;SDS011;28708;52.224;6.924;2023-06-19T02:00:07;9.05;;;5.20;;
43086;SDS011;28708;52.224;6.924;2023-06-19T02:02:39;8.80;;;4.70;;
43086;SDS011;28708;52.224;6.924;2023-06-19T02:05:05;12.18;;;5.35;;
43086;SDS011;28708;52.224;6.924;2023-06-19T02:07:30;9.32;;;5.20;;
43086;SDS011;28708;52.224;6.924;2023-06-19T02:09:56;6.85;;;5.20;;
43086;SDS011;28708;52.224;6.924;2023-06-19T02:12:22;6.35;;;4.90;;
43086;SDS011;28708;52.224;6.924;2023-06-19T02:14:48;9.07;;;4.65;;
43086;SDS011;28708;52.224;6.924;2023-06-19T02:17:14;7.90;;;5.00;;
43086;SDS011;28708;52.224;6.924;2023-06-19T02:19:40;7.97;;;5.07;;
43086;SDS011;28708;52.224;6.924;2023-06-19T02:22:06;8.75;;;5.47;;
43086;SDS011;28708;52.224;6.924;2023-06-19T02:24:32;6.72;;;4.63;;
43086;SDS011;28708;52.224;6.924;2023-06-19T02:26:57;10.25;;;5.18;;
43086;SDS011;28708;52.224;6.924;2023-06-19T02:29:24;8.50;;;4.90;;
43086;SDS011;28708;52.224;6.924;2023-06-19T02:31:50;6.82;;;4.45;;
43086;SDS011;28708;52.224;6.924;2023-06-19T02:34:16;8.40;;;4.57;;
43086;SDS011;28708;52.224;6.924;2023-06-19T02:36:42;7.95;;;5.07;;
43086;SDS011;28708;52.224;6.924;2023-06-19T02:39:08;7.15;;;4.75;;
43086;SDS011;28708;52.224;6.924;2023-06-19T02:41:34;9.73;;;4.90;;
43086;SDS011;28708;52.224;6.924;2023-06-19T02:44:02;7.15;;;4.93;;
43086;SDS011;28708;52.224;6.924;2023-06-19T02:46:28;6.82;;;4.75;;
43086;SDS011;28708;52.224;6.924;2023-06-19T02:48:53;8.10;;;4.22;;
43086;SDS011;28708;52.224;6.924;2023-06-19T02:51:21;8.93;;;4.80;;
43086;SDS011;28708;52.224;6.924;2023-06-19T02:53:46;7.90;;;4.00;;
43086;SDS011;28708;52.224;6.924;2023-06-19T02:56:12;8.02;;;4.40;;
43086;SDS011;28708;52.224;6.924;2023-06-19T02:58:38;6.53;;;4.70;;
43086;SDS011;28708;52.224;6.924;2023-06-19T03:01:03;6.47;;;4.75;;
43086;SDS011;28708;52.224;6.924;2023-06-19T03:03:32;6.75;;;4.43;;
43086;SDS011;28708;52.224;6.924;2023-06-19T03:06:02;7.05;;;5.07;;
43086;SDS011;28708;52.224;6.924;2023-06-19T03:08:35;9.57;;;4.47;;
43086;SDS011;28708;52.224;6.924;2023-06-19T03:11:01;6.78;;;4.55;;
43086;SDS011;28708;52.224;6.924;2023-06-19T03:13:29;6.40;;;4.40;;
43086;SDS011;28708;52.224;6.924;2023-06-19T03:16:08;7.47;;;4.22;;
43086;SDS011;28708;52.224;6.924;2023-06-19T03:18:34;6.63;;;4.93;;
43086;SDS011;28708;52.224;6.924;2023-06-19T03:21:00;7.37;;;4.37;;
43086;SDS011;28708;52.224;6.924;2023-06-19T03:23:25;4.90;;;3.90;;
43086;SDS011;28708;52.224;6.924;2023-06-19T03:25:51;6.18;;;4.07;;
43086;SDS011;28708;52.224;6.924;2023-06-19T03:28:17;6.10;;;4.40;;
43086;SDS011;28708;52.224;6.924;2023-06-19T03:30:42;6.00;;;4.50;;
43086;SDS011;28708;52.224;6.924;2023-06-19T03:33:08;8.13;;;4.82;;
43086;SDS011;28708;52.224;6.924;2023-06-19T03:35:38;6.50;;;4.63;;
43086;SDS011;28708;52.224;6.924;2023-06-19T03:38:06;6.40;;;4.20;;
43086;SDS011;28708;52.224;6.924;2023-06-19T03:40:33;8.70;;;4.73;;
43086;SDS011;28708;52.224;6.924;2023-06-19T03:43:05;6.27;;;4.03;;
43086;SDS011;28708;52.224;6.924;2023-06-19T03:45:31;6.63;;;4.17;;
43086;SDS011;28708;52.224;6.924;2023-06-19T03:47:57;6.90;;;4.70;;
43086;SDS011;28708;52.224;6.924;2023-06-19T03:50:22;5.87;;;4.30;;
43086;SDS011;28708;52.224;6.924;2023-06-19T03:52:48;6.13;;;4.40;;
43086;SDS011;28708;52.224;6.924;2023-06-19T03:55:13;6.17;;;4.70;;
43086;SDS011;28708;52.224;6.924;2023-06-19T03:57:39;7.83;;;4.63;;
43086;SDS011;28708;52.224;6.924;2023-06-19T04:00:05;6.83;;;4.20;;
43086;SDS011;28708;52.224;6.924;2023-06-19T04:02:37;5.63;;;4.40;;
43086;SDS011;28708;52.224;6.924;2023-06-19T04:05:03;7.47;;;4.93;;
43086;SDS011;28708;52.224;6.924;2023-06-19T04:07:29;7.53;;;4.17;;
43086;SDS011;28708;52.224;6.924;2023-06-19T04:09:56;6.00;;;4.20;;
43086;SDS011;28708;52.224;6.924;2023-06-19T04:12:22;6.90;;;4.33;;
43086;SDS011;28708;52.224;6.924;2023-06-19T04:14:48;7.87;;;5.03;;
43086;SDS011;28708;52.224;6.924;2023-06-19T04:17:14;6.83;;;4.80;;
43086;SDS011;28708;52.224;6.924;2023-06-19T04:19:40;9.20;;;4.43;;
43086;SDS011;28708;52.224;6.924;2023-06-19T04:22:07;8.17;;;5.17;;
43086;SDS011;28708;52.224;6.924;2023-06-19T04:24:32;6.83;;;4.40;;
43086;SDS011;28708;52.224;6.924;2023-06-19T04:26:58;6.27;;;4.80;;
43086;SDS011;28708;52.224;6.924;2023-06-19T04:29:24;6.03;;;4.23;;
43086;SDS011;28708;52.224;6.924;2023-06-19T04:31:50;7.60;;;4.53;;
43086;SDS011;28708;52.224;6.924;2023-06-19T04:34:16;7.70;;;4.80;;
43086;SDS011;28708;52.224;6.924;2023-06-19T04:36:46;7.90;;;4.87;;
43086;SDS011;28708;52.224;6.924;2023-06-19T04:39:12;5.83;;;4.20;;
43086;SDS011;28708;52.224;6.924;2023-06-19T04:41:38;9.33;;;5.13;;
43086;SDS011;28708;52.224;6.924;2023-06-19T04:44:06;7.50;;;5.00;;
43086;SDS011;28708;52.224;6.924;2023-06-19T04:46:33;7.72;;;4.85;;
43086;SDS011;28708;52.224;6.924;2023-06-19T04:48:59;6.47;;;4.30;;
43086;SDS011;28708;52.224;6.924;2023-06-19T04:51:24;5.57;;;4.27;;
43086;SDS011;28708;52.224;6.924;2023-06-19T04:53:51;6.50;;;4.17;;
43086;SDS011;28708;52.224;6.924;2023-06-19T04:56:17;5.67;;;3.80;;
43086;SDS011;28708;52.224;6.924;2023-06-19T04:58:43;10.20;;;4.50;;
43086;SDS011;28708;52.224;6.924;2023-06-19T05:01:15;9.98;;;3.97;;
43086;SDS011;28708;52.224;6.924;2023-06-19T05:03:42;9.88;;;4.40;;
43086;SDS011;28708;52.224;6.924;2023-06-19T05:06:10;7.45;;;4.25;;
43086;SDS011;28708;52.224;6.924;2023-06-19T05:08:36;7.17;;;3.53;;
43086;SDS011;28708;52.224;6.924;2023-06-19T05:11:02;6.80;;;4.00;;
43086;SDS011;28708;52.224;6.924;2023-06-19T05:13:27;5.07;;;3.40;;
43086;SDS011;28708;52.224;6.924;2023-06-19T05:15:53;6.80;;;3.97;;
43086;SDS011;28708;52.224;6.924;2023-06-19T05:18:20;5.63;;;3.83;;
43086;SDS011;28708;52.224;6.924;2023-06-19T05:20:46;6.13;;;3.97;;
43086;SDS011;28708;52.224;6.924;2023-06-19T05:23:12;7.57;;;3.53;;
43086;SDS011;28708;52.224;6.924;2023-06-19T05:25:38;6.70;;;3.30;;
43086;SDS011;28708;52.224;6.924;2023-06-19T05:28:03;4.67;;;3.07;;
43086;SDS011;28708;52.224;6.924;2023-06-19T05:30:29;7.13;;;3.47;;
43086;SDS011;28708;52.224;6.924;2023-06-19T05:32:55;5.57;;;3.70;;
43086;SDS011;28708;52.224;6.924;2023-06-19T05:35:20;5.13;;;3.33;;
43086;SDS011;28708;52.224;6.924;2023-06-19T05:37:46;4.53;;;3.10;;
43086;SDS011;28708;52.224;6.924;2023-06-19T05:40:12;6.73;;;4.07;;
43086;SDS011;28708;52.224;6.924;2023-06-19T05:42:39;7.40;;;3.73;;
43086;SDS011;28708;52.224;6.924;2023-06-19T05:45:05;5.03;;;3.00;;
43086;SDS011;28708;52.224;6.924;2023-06-19T05:47:31;5.53;;;3.53;;
43086;SDS011;28708;52.224;6.924;2023-06-19T05:49:57;5.97;;;3.63;;
43086;SDS011;28708;52.224;6.924;2023-06-19T05:52:23;6.17;;;3.50;;
43086;SDS011;28708;52.224;6.924;2023-06-19T05:54:49;5.57;;;3.77;;
43086;SDS011;28708;52.224;6.924;2023-06-19T05:57:15;5.93;;;3.97;;
43086;SDS011;28708;52.224;6.924;2023-06-19T05:59:41;7.33;;;4.20;;
43086;SDS011;28708;52.224;6.924;2023-06-19T06:02:07;5.80;;;3.95;;
43086;SDS011;28708;52.224;6.924;2023-06-19T06:04:33;7.03;;;4.65;;
43086;SDS011;28708;52.224;6.924;2023-06-19T06:07:02;7.40;;;4.35;;
43086;SDS011;28708;52.224;6.924;2023-06-19T06:09:27;5.90;;;4.32;;
43086;SDS011;28708;52.224;6.924;2023-06-19T06:11:53;9.43;;;4.80;;
43086;SDS011;28708;52.224;6.924;2023-06-19T06:14:19;5.60;;;4.00;;
43086;SDS011;28708;52.224;6.924;2023-06-19T06:16:44;10.00;;;4.75;;
43086;SDS011;28708;52.224;6.924;2023-06-19T06:19:10;8.60;;;4.38;;
43086;SDS011;28708;52.224;6.924;2023-06-19T06:21:36;6.03;;;4.20;;
43086;SDS011;28708;52.224;6.924;2023-06-19T06:24:02;8.50;;;4.60;;
43086;SDS011;28708;52.224;6.924;2023-06-19T06:26:27;5.97;;;4.30;;
43086;SDS011;28708;52.224;6.924;2023-06-19T06:28:53;7.10;;;5.07;;
43086;SDS011;28708;52.224;6.924;2023-06-19T06:31:21;6.20;;;5.00;;
43086;SDS011;28708;52.224;6.924;2023-06-19T06:33:47;6.10;;;4.80;;
43086;SDS011;28708;52.224;6.924;2023-06-19T06:36:14;7.13;;;4.83;;
43086;SDS011;28708;52.224;6.924;2023-06-19T06:38:40;9.67;;;5.33;;
43086;SDS011;28708;52.224;6.924;2023-06-19T06:41:05;7.70;;;4.70;;
43086;SDS011;28708;52.224;6.924;2023-06-19T06:43:31;7.57;;;5.10;;
43086;SDS011;28708;52.224;6.924;2023-06-19T06:45:57;7.67;;;4.77;;
43086;SDS011;28708;52.224;6.924;2023-06-19T06:48:23;6.32;;;4.90;;
43086;SDS011;28708;52.224;6.924;2023-06-19T06:50:49;8.50;;;5.90;;
43086;SDS011;28708;52.224;6.924;2023-06-19T06:53:14;6.95;;;5.32;;
43086;SDS011;28708;52.224;6.924;2023-06-19T06:55:40;8.80;;;5.40;;
43086;SDS011;28708;52.224;6.924;2023-06-19T06:58:06;8.25;;;5.25;;
43086;SDS011;28708;52.224;6.924;2023-06-19T07:00:31;10.30;;;5.80;;
43086;SDS011;28708;52.224;6.924;2023-06-19T07:02:57;9.82;;;5.22;;
43086;SDS011;28708;52.224;6.924;2023-06-19T07:05:23;8.00;;;5.25;;
43086;SDS011;28708;52.224;6.924;2023-06-19T07:07:48;7.32;;;5.10;;
43086;SDS011;28708;52.224;6.924;2023-06-19T07:10:14;8.23;;;4.67;;
43086;SDS011;28708;52.224;6.924;2023-06-19T07:12:47;6.88;;;4.65;;
43086;SDS011;28708;52.224;6.924;2023-06-19T07:15:13;6.75;;;4.32;;
43086;SDS011;28708;52.224;6.924;2023-06-19T07:17:39;9.40;;;5.18;;
43086;SDS011;28708;52.224;6.924;2023-06-19T07:20:05;8.95;;;5.40;;
43086;SDS011;28708;52.224;6.924;2023-06-19T07:22:31;8.55;;;4.90;;
43086;SDS011;28708;52.224;6.924;2023-06-19T07:24:57;9.32;;;5.28;;
43086;SDS011;28708;52.224;6.924;2023-06-19T07:27:23;7.13;;;5.00;;
43086;SDS011;28708;52.224;6.924;2023-06-19T07:29:52;8.32;;;4.82;;
43086;SDS011;28708;52.224;6.924;2023-06-19T07:32:18;8.93;;;4.90;;
43086;SDS011;28708;52.224;6.924;2023-06-19T07:34:45;8.77;;;5.32;;
43086;SDS011;28708;52.224;6.924;2023-06-19T07:37:10;8.25;;;5.32;;
43086;SDS011;28708;52.224;6.924;2023-06-19T07:39:42;9.57;;;5.63;;
43086;SDS011;28708;52.224;6.924;2023-06-19T07:42:12;12.98;;;5.88;;
43086;SDS011;28708;52.224;6.924;2023-06-19T07:44:38;7.68;;;5.32;;
43086;SDS011;28708;52.224;6.924;2023-06-19T07:47:04;8.20;;;5.25;;
43086;SDS011;28708;52.224;6.924;2023-06-19T07:49:30;8.70;;;5.05;;
43086;SDS011;28708;52.224;6.924;2023-06-19T07:51:55;9.23;;;5.45;;
43086;SDS011;28708;52.224;6.924;2023-06-19T07:54:21;8.02;;;5.32;;
43086;SDS011;28708;52.224;6.924;2023-06-19T07:56:47;10.15;;;5.82;;
43086;SDS011;28708;52.224;6.924;2023-06-19T07:59:12;9.25;;;5.57;;
43086;SDS011;28708;52.224;6.924;2023-06-19T08:01:39;6.53;;;5.13;;
43086;SDS011;28708;52.224;6.924;2023-06-19T08:04:05;8.85;;;5.95;;
43086;SDS011;28708;52.224;6.924;2023-06-19T08:06:31;8.35;;;5.10;;
43086;SDS011;28708;52.224;6.924;2023-06-19T08:08:57;8.00;;;6.10;;
43086;SDS011;28708;52.224;6.924;2023-06-19T08:11:23;8.60;;;6.50;;
43086;SDS011;28708;52.224;6.924;2023-06-19T08:13:48;6.25;;;5.45;;
43086;SDS011;28708;52.224;6.924;2023-06-19T08:16:14;9.05;;;6.78;;
43086;SDS011;28708;52.224;6.924;2023-06-19T08:18:40;7.70;;;6.25;;
43086;SDS011;28708;52.224;6.924;2023-06-19T08:21:06;8.75;;;7.20;;
43086;SDS011;28708;52.224;6.924;2023-06-19T08:23:32;7.80;;;6.38;;
43086;SDS011;28708;52.224;6.924;2023-06-19T08:25:58;8.38;;;5.82;;
43086;SDS011;28708;52.224;6.924;2023-06-19T08:28:23;6.57;;;5.20;;
43086;SDS011;28708;52.224;6.924;2023-06-19T08:30:49;9.90;;;5.43;;
43086;SDS011;28708;52.224;6.924;2023-06-19T08:33:15;7.35;;;5.30;;
43086;SDS011;28708;52.224;6.924;2023-06-19T08:35:41;7.63;;;5.43;;
43086;SDS011;28708;52.224;6.924;2023-06-19T08:38:06;11.75;;;6.10;;
43086;SDS011;28708;52.224;6.924;2023-06-19T08:40:32;8.00;;;5.30;;
43086;SDS011;28708;52.224;6.924;2023-06-19T08:42:58;8.77;;;5.30;;
43086;SDS011;28708;52.224;6.924;2023-06-19T08:45:26;6.15;;;4.57;;
43086;SDS011;28708;52.224;6.924;2023-06-19T08:47:59;10.35;;;5.35;;
43086;SDS011;28708;52.224;6.924;2023-06-19T08:50:25;7.95;;;5.28;;
43086;SDS011;28708;52.224;6.924;2023-06-19T08:52:51;6.47;;;4.50;;
43086;SDS011;28708;52.224;6.924;2023-06-19T08:55:17;10.70;;;4.85;;
43086;SDS011;28708;52.224;6.924;2023-06-19T08:57:42;8.43;;;5.15;;
43086;SDS011;28708;52.224;6.924;2023-06-19T09:00:08;7.38;;;4.28;;
43086;SDS011;28708;52.224;6.924;2023-06-19T09:02:45;5.93;;;4.50;;
43086;SDS011;28708;52.224;6.924;2023-06-19T09:05:12;7.30;;;4.25;;
43086;SDS011;28708;52.224;6.924;2023-06-19T09:07:43;8.15;;;4.50;;
43086;SDS011;28708;52.224;6.924;2023-06-19T09:10:18;7.15;;;4.40;;
43086;SDS011;28708;52.224;6.924;2023-06-19T09:12:55;6.53;;;4.78;;
43086;SDS011;28708;52.224;6.924;2023-06-19T09:15:27;6.63;;;4.40;;
43086;SDS011;28708;52.224;6.924;2023-06-19T09:20:28;7.82;;;4.07;;
43086;SDS011;28708;52.224;6.924;2023-06-19T09:22:57;7.93;;;5.15;;
43086;SDS011;28708;52.224;6.924;2023-06-19T09:25:24;7.07;;;4.30;;
43086;SDS011;28708;52.224;6.924;2023-06-19T09:27:52;13.07;;;4.40;;
43086;SDS011;28708;52.224;6.924;2023-06-19T09:30:19;8.00;;;4.38;;
43086;SDS011;28708;52.224;6.924;2023-06-19T09:32:46;6.07;;;4.03;;
43086;SDS011;28708;52.224;6.924;2023-06-19T09:35:12;6.68;;;4.20;;
43086;SDS011;28708;52.224;6.924;2023-06-19T09:37:38;7.60;;;4.05;;
43086;SDS011;28708;52.224;6.924;2023-06-19T09:40:06;6.00;;;4.18;;
43086;SDS011;28708;52.224;6.924;2023-06-19T09:42:37;8.98;;;4.07;;
43086;SDS011;28708;52.224;6.924;2023-06-19T09:45:08;5.95;;;3.55;;
43086;SDS011;28708;52.224;6.924;2023-06-19T09:47:41;9.13;;;3.83;;
43086;SDS011;28708;52.224;6.924;2023-06-19T09:50:11;5.70;;;3.60;;
43086;SDS011;28708;52.224;6.924;2023-06-19T09:52:38;5.45;;;3.50;;
43086;SDS011;28708;52.224;6.924;2023-06-19T09:55:08;7.63;;;3.88;;
43086;SDS011;28708;52.224;6.924;2023-06-19T09:57:35;5.65;;;3.70;;
43086;SDS011;28708;52.224;6.924;2023-06-19T10:00:03;7.95;;;4.50;;
43086;SDS011;28708;52.224;6.924;2023-06-19T10:02:45;6.97;;;3.95;;
43086;SDS011;28708;52.224;6.924;2023-06-19T10:05:12;6.97;;;4.13;;
43086;SDS011;28708;52.224;6.924;2023-06-19T10:07:41;7.25;;;5.10;;
43086;SDS011;28708;52.224;6.924;2023-06-19T10:10:09;8.02;;;4.78;;
43086;SDS011;28708;52.224;6.924;2023-06-19T10:12:44;7.30;;;4.95;;
43086;SDS011;28708;52.224;6.924;2023-06-19T10:17:41;9.02;;;5.22;;
43086;SDS011;28708;52.224;6.924;2023-06-19T10:20:19;7.88;;;6.60;;
43086;SDS011;28708;52.224;6.924;2023-06-19T10:22:51;10.98;;;7.15;;
43086;SDS011;28708;52.224;6.924;2023-06-19T10:25:21;9.25;;;7.28;;
43086;SDS011;28708;52.224;6.924;2023-06-19T10:27:48;11.45;;;6.78;;
43086;SDS011;28708;52.224;6.924;2023-06-19T10:30:17;10.80;;;7.28;;
43086;SDS011;28708;52.224;6.924;2023-06-19T10:32:46;19.35;;;6.38;;
43086;SDS011;28708;52.224;6.924;2023-06-19T10:35:13;7.20;;;5.38;;
43086;SDS011;28708;52.224;6.924;2023-06-19T10:37:40;9.70;;;6.25;;
43086;SDS011;28708;52.224;6.924;2023-06-19T10:40:07;9.00;;;5.63;;
43086;SDS011;28708;52.224;6.924;2023-06-19T10:42:37;10.57;;;5.72;;
43086;SDS011;28708;52.224;6.924;2023-06-19T10:45:04;7.13;;;5.43;;
43086;SDS011;28708;52.224;6.924;2023-06-19T10:47:32;9.88;;;5.07;;
43086;SDS011;28708;52.224;6.924;2023-06-19T10:49:58;9.77;;;6.07;;
43086;SDS011;28708;52.224;6.924;2023-06-19T10:52:24;7.63;;;5.25;;
43086;SDS011;28708;52.224;6.924;2023-06-19T10:54:56;9.68;;;5.45;;
43086;SDS011;28708;52.224;6.924;2023-06-19T10:57:31;7.55;;;4.63;;
43086;SDS011;28708;52.224;6.924;2023-06-19T10:59:57;7.60;;;4.47;;
43086;SDS011;28708;52.224;6.924;2023-06-19T11:02:23;11.25;;;6.78;;
43086;SDS011;28708;52.224;6.924;2023-06-19T11:04:53;8.80;;;5.53;;
43086;SDS011;28708;52.224;6.924;2023-06-19T11:07:20;9.23;;;5.70;;
43086;SDS011;28708;52.224;6.924;2023-06-19T11:09:47;10.80;;;6.70;;
43086;SDS011;28708;52.224;6.924;2023-06-19T11:12:18;10.93;;;6.40;;
43086;SDS011;28708;52.224;6.924;2023-06-19T11:14:45;9.35;;;5.57;;
43086;SDS011;28708;52.224;6.924;2023-06-19T11:17:11;8.82;;;5.68;;
43086;SDS011;28708;52.224;6.924;2023-06-19T11:19:37;9.80;;;6.35;;
43086;SDS011;28708;52.224;6.924;2023-06-19T11:22:05;6.45;;;4.70;;
43086;SDS011;28708;52.224;6.924;2023-06-19T11:24:32;11.20;;;6.40;;
43086;SDS011;28708;52.224;6.924;2023-06-19T11:26:57;9.77;;;6.05;;
43086;SDS011;28708;52.224;6.924;2023-06-19T11:31:51;8.10;;;5.97;;
43086;SDS011;28708;52.224;6.924;2023-06-19T11:34:19;10.15;;;5.57;;
43086;SDS011;28708;52.224;6.924;2023-06-19T11:36:55;8.15;;;5.82;;
43086;SDS011;28708;52.224;6.924;2023-06-19T11:39:21;10.77;;;6.53;;
43086;SDS011;28708;52.224;6.924;2023-06-19T11:41:47;8.40;;;5.75;;
43086;SDS011;28708;52.224;6.924;2023-06-19T11:44:12;10.98;;;6.35;;
43086;SDS011;28708;52.224;6.924;2023-06-19T11:46:38;7.10;;;5.63;;
43086;SDS011;28708;52.224;6.924;2023-06-19T11:49:22;9.90;;;6.03;;
43086;SDS011;28708;52.224;6.924;2023-06-19T11:51:48;9.68;;;6.40;;
43086;SDS011;28708;52.224;6.924;2023-06-19T11:54:14;8.02;;;5.78;;
43086;SDS011;28708;52.224;6.924;2023-06-19T11:56:40;12.73;;;7.40;;
43086;SDS011;28708;52.224;6.924;2023-06-19T11:59:06;8.70;;;5.85;;
43086;SDS011;28708;52.224;6.924;2023-06-19T12:01:33;12.98;;;6.35;;
43086;SDS011;28708;52.224;6.924;2023-06-19T12:03:59;10.43;;;6.03;;
43086;SDS011;28708;52.224;6.924;2023-06-19T12:06:26;10.38;;;6.90;;
43086;SDS011;28708;52.224;6.924;2023-06-19T12:08:52;11.23;;;6.63;;
43086;SDS011;28708;52.224;6.924;2023-06-19T12:11:17;8.40;;;5.20;;
43086;SDS011;28708;52.224;6.924;2023-06-19T12:13:43;8.55;;;6.32;;
43086;SDS011;28708;52.224;6.924;2023-06-19T12:16:09;11.77;;;7.07;;
43086;SDS011;28708;52.224;6.924;2023-06-19T12:18:36;10.25;;;6.95;;
43086;SDS011;28708;52.224;6.924;2023-06-19T12:21:02;8.73;;;6.65;;
43086;SDS011;28708;52.224;6.924;2023-06-19T12:23:28;7.90;;;6.25;;
43086;SDS011;28708;52.224;6.924;2023-06-19T12:25:54;7.43;;;6.05;;
43086;SDS011;28708;52.224;6.924;2023-06-19T12:28:20;13.50;;;6.65;;
43086;SDS011;28708;52.224;6.924;2023-06-19T12:30:46;9.95;;;6.15;;
43086;SDS011;28708;52.224;6.924;2023-06-19T12:33:14;8.82;;;6.40;;
43086;SDS011;28708;52.224;6.924;2023-06-19T12:35:40;10.77;;;6.25;;
43086;SDS011;28708;52.224;6.924;2023-06-19T12:38:07;11.40;;;7.15;;
43086;SDS011;28708;52.224;6.924;2023-06-19T12:40:33;9.30;;;6.22;;
43086;SDS011;28708;52.224;6.924;2023-06-19T12:42:59;8.70;;;5.70;;
43086;SDS011;28708;52.224;6.924;2023-06-19T12:45:24;9.27;;;6.85;;
43086;SDS011;28708;52.224;6.924;2023-06-19T12:47:50;10.23;;;6.63;;
43086;SDS011;28708;52.224;6.924;2023-06-19T12:50:15;6.90;;;5.13;;
43086;SDS011;28708;52.224;6.924;2023-06-19T12:52:41;9.70;;;5.20;;
43086;SDS011;28708;52.224;6.924;2023-06-19T12:55:07;6.57;;;5.30;;
43086;SDS011;28708;52.224;6.924;2023-06-19T12:57:33;13.57;;;6.15;;
43086;SDS011;28708;52.224;6.924;2023-06-19T12:59:59;12.02;;;7.05;;
43086;SDS011;28708;52.224;6.924;2023-06-19T13:02:24;8.43;;;5.70;;
43086;SDS011;28708;52.224;6.924;2023-06-19T13:04:50;9.43;;;5.00;;
43086;SDS011;28708;52.224;6.924;2023-06-19T13:07:17;7.18;;;6.10;;
43086;SDS011;28708;52.224;6.924;2023-06-19T13:09:42;9.57;;;6.28;;
43086;SDS011;28708;52.224;6.924;2023-06-19T13:12:08;8.65;;;5.40;;
43086;SDS011;28708;52.224;6.924;2023-06-19T13:14:34;9.38;;;5.82;;
43086;SDS011;28708;52.224;6.924;2023-06-19T13:17:00;8.20;;;4.82;;
43086;SDS011;28708;52.224;6.924;2023-06-19T13:19:26;8.68;;;5.90;;
43086;SDS011;28708;52.224;6.924;2023-06-19T13:21:51;9.07;;;5.32;;
43086;SDS011;28708;52.224;6.924;2023-06-19T13:24:17;8.57;;;5.75;;
43086;SDS011;28708;52.224;6.924;2023-06-19T13:26:46;9.13;;;6.47;;
43086;SDS011;28708;52.224;6.924;2023-06-19T13:29:12;8.63;;;5.95;;
43086;SDS011;28708;52.224;6.924;2023-06-19T13:31:37;11.45;;;6.28;;
43086;SDS011;28708;52.224;6.924;2023-06-19T13:34:03;9.70;;;6.97;;
43086;SDS011;28708;52.224;6.924;2023-06-19T13:36:29;8.93;;;6.10;;
43086;SDS011;28708;52.224;6.924;2023-06-19T13:38:55;11.15;;;6.03;;
43086;SDS011;28708;52.224;6.924;2023-06-19T13:41:21;9.68;;;6.00;;
43086;SDS011;28708;52.224;6.924;2023-06-19T13:43:50;7.72;;;5.63;;
43086;SDS011;28708;52.224;6.924;2023-06-19T13:46:18;7.80;;;5.57;;
43086;SDS011;28708;52.224;6.924;2023-06-19T13:48:46;8.50;;;6.10;;
43086;SDS011;28708;52.224;6.924;2023-06-19T13:51:15;7.82;;;5.50;;
43086;SDS011;28708;52.224;6.924;2023-06-19T13:53:42;10.68;;;6.07;;
43086;SDS011;28708;52.224;6.924;2023-06-19T13:56:07;7.90;;;5.25;;
43086;SDS011;28708;52.224;6.924;2023-06-19T13:58:33;10.38;;;6.75;;
43086;SDS011;28708;52.224;6.924;2023-06-19T14:00:59;10.85;;;6.00;;
43086;SDS011;28708;52.224;6.924;2023-06-19T14:03:24;9.90;;;5.70;;
43086;SDS011;28708;52.224;6.924;2023-06-19T14:05:50;10.13;;;6.70;;
43086;SDS011;28708;52.224;6.924;2023-06-19T14:08:15;7.60;;;5.82;;
43086;SDS011;28708;52.224;6.924;2023-06-19T14:10:41;11.15;;;6.95;;
43086;SDS011;28708;52.224;6.924;2023-06-19T14:13:08;7.80;;;6.00;;
43086;SDS011;28708;52.224;6.924;2023-06-19T14:15:34;7.80;;;5.55;;
43086;SDS011;28708;52.224;6.924;2023-06-19T14:17:59;10.50;;;6.03;;
43086;SDS011;28708;52.224;6.924;2023-06-19T14:20:25;9.38;;;6.43;;
43086;SDS011;28708;52.224;6.924;2023-06-19T14:22:50;7.53;;;5.63;;
43086;SDS011;28708;52.224;6.924;2023-06-19T14:25:16;7.57;;;5.68;;
43086;SDS011;28708;52.224;6.924;2023-06-19T14:27:42;9.77;;;4.97;;
43086;SDS011;28708;52.224;6.924;2023-06-19T14:30:07;21.35;;;6.97;;
43086;SDS011;28708;52.224;6.924;2023-06-19T14:32:34;11.02;;;6.30;;
43086;SDS011;28708;52.224;6.924;2023-06-19T14:35:02;8.32;;;5.50;;
43086;SDS011;28708;52.224;6.924;2023-06-19T14:37:28;9.73;;;6.18;;
43086;SDS011;28708;52.224;6.924;2023-06-19T14:39:54;11.98;;;5.38;;
43086;SDS011;28708;52.224;6.924;2023-06-19T14:42:20;6.78;;;4.93;;
43086;SDS011;28708;52.224;6.924;2023-06-19T14:44:46;9.07;;;5.63;;
43086;SDS011;28708;52.224;6.924;2023-06-19T14:47:11;8.38;;;4.90;;
43086;SDS011;28708;52.224;6.924;2023-06-19T14:49:37;7.05;;;4.63;;
43086;SDS011;28708;52.224;6.924;2023-06-19T14:52:03;8.45;;;4.95;;
43086;SDS011;28708;52.224;6.924;2023-06-19T14:54:30;8.20;;;5.40;;